sensor_id;sensor_type;location;lat;lon;timestamp;temperature;humidity
53254;DHT22;39148;53.332;6.922;2023-06-22T00:00:55;24.10;78.50
53254;DHT22;39148;53.332;6.922;2023-06-22T00:03:23;24.20;78.50
53254;DHT22;39148;53.332;6.922;2023-06-22T00:05:50;24.10;78.10
53254;DHT22;39148;53.332;6.922;2023-06-22T00:08:16;24.20;78.10
53254;DHT22;39148;53.332;6.922;2023-06-22T00:10:42;24.00;78.10
53254;DHT22;39148;53.332;6.922;2023-06-22T00:13:09;24.10;78.40
53254;DHT22;39148;53.332;6.922;2023-06-22T00:15:36;24.10;78.20
53254;DHT22;39148;53.332;6.922;2023-06-22T00:18:02;24.00;78.20
53254;DHT22;39148;53.332;6.922;2023-06-22T00:20:28;24.10;78.70
53254;DHT22;39148;53.332;6.922;2023-06-22T00:22:55;24.00;78.50
53254;DHT22;39148;53.332;6.922;2023-06-22T00:25:21;24.00;78.40
53254;DHT22;39148;53.332;6.922;2023-06-22T00:27:47;23.90;78.50
53254;DHT22;39148;53.332;6.922;2023-06-22T00:30:13;23.90;78.70
53254;DHT22;39148;53.332;6.922;2023-06-22T00:32:39;24.00;78.10
53254;DHT22;39148;53.332;6.922;2023-06-22T00:35:05;23.90;78.80
53254;DHT22;39148;53.332;6.922;2023-06-22T00:37:31;23.80;78.60
53254;DHT22;39148;53.332;6.922;2023-06-22T00:39:56;23.90;78.90
53254;DHT22;39148;53.332;6.922;2023-06-22T00:42:22;23.80;78.80
53254;DHT22;39148;53.332;6.922;2023-06-22T00:44:48;23.80;78.90
53254;DHT22;39148;53.332;6.922;2023-06-22T00:47:16;23.80;78.80
53254;DHT22;39148;53.332;6.922;2023-06-22T00:49:43;23.80;78.40
53254;DHT22;39148;53.332;6.922;2023-06-22T00:52:10;23.80;78.40
53254;DHT22;39148;53.332;6.922;2023-06-22T00:54:43;23.70;78.40
53254;DHT22;39148;53.332;6.922;2023-06-22T00:57:15;23.80;78.60
53254;DHT22;39148;53.332;6.922;2023-06-22T00:59:45;23.80;78.60
53254;DHT22;39148;53.332;6.922;2023-06-22T01:02:11;23.70;79.10
53254;DHT22;39148;53.332;6.922;2023-06-22T01:04:38;23.70;79.00
53254;DHT22;39148;53.332;6.922;2023-06-22T01:12:44;23.70;77.20
53254;DHT22;39148;53.332;6.922;2023-06-22T01:15:16;23.50;78.60
53254;DHT22;39148;53.332;6.922;2023-06-22T01:17:45;23.60;78.60
53254;DHT22;39148;53.332;6.922;2023-06-22T01:20:15;23.40;78.30
53254;DHT22;39148;53.332;6.922;2023-06-22T01:25:36;23.50;77.50
53254;DHT22;39148;53.332;6.922;2023-06-22T01:28:17;23.40;78.70
53254;DHT22;39148;53.332;6.922;2023-06-22T01:30:46;23.60;78.80
53254;DHT22;39148;53.332;6.922;2023-06-22T01:33:13;23.50;78.70
53254;DHT22;39148;53.332;6.922;2023-06-22T01:35:39;23.50;79.10
53254;DHT22;39148;53.332;6.922;2023-06-22T01:38:05;23.60;79.20
53254;DHT22;39148;53.332;6.922;2023-06-22T01:40:33;23.40;78.70
53254;DHT22;39148;53.332;6.922;2023-06-22T01:43:03;22.90;78.60
53254;DHT22;39148;53.332;6.922;2023-06-22T01:45:29;23.50;79.20
53254;DHT22;39148;53.332;6.922;2023-06-22T01:47:55;23.40;78.70
53254;DHT22;39148;53.332;6.922;2023-06-22T01:50:21;23.40;79.30
53254;DHT22;39148;53.332;6.922;2023-06-22T01:52:47;23.40;79.30
53254;DHT22;39148;53.332;6.922;2023-06-22T01:55:13;23.50;79.30
53254;DHT22;39148;53.332;6.922;2023-06-22T01:57:39;23.50;79.40
53254;DHT22;39148;53.332;6.922;2023-06-22T02:00:11;23.20;79.30
53254;DHT22;39148;53.332;6.922;2023-06-22T02:05:17;23.30;77.60
53254;DHT22;39148;53.332;6.922;2023-06-22T02:07:56;23.30;79.00
53254;DHT22;39148;53.332;6.922;2023-06-22T02:10:26;23.20;79.00
53254;DHT22;39148;53.332;6.922;2023-06-22T02:12:54;23.30;79.00
53254;DHT22;39148;53.332;6.922;2023-06-22T02:15:20;23.20;79.40
53254;DHT22;39148;53.332;6.922;2023-06-22T02:17:47;23.10;79.40
53254;DHT22;39148;53.332;6.922;2023-06-22T02:20:14;23.10;79.40
53254;DHT22;39148;53.332;6.922;2023-06-22T02:22:40;23.10;79.00
53254;DHT22;39148;53.332;6.922;2023-06-22T02:25:06;23.20;79.40
53254;DHT22;39148;53.332;6.922;2023-06-22T02:27:32;23.20;79.10
53254;DHT22;39148;53.332;6.922;2023-06-22T02:29:58;23.20;79.70
53254;DHT22;39148;53.332;6.922;2023-06-22T02:32:23;23.00;79.40
53254;DHT22;39148;53.332;6.922;2023-06-22T02:34:49;23.20;79.60
53254;DHT22;39148;53.332;6.922;2023-06-22T02:37:15;23.10;79.80
53254;DHT22;39148;53.332;6.922;2023-06-22T02:39:41;23.00;79.50
53254;DHT22;39148;53.332;6.922;2023-06-22T02:42:06;23.00;79.50
53254;DHT22;39148;53.332;6.922;2023-06-22T02:44:32;22.90;79.80
53254;DHT22;39148;53.332;6.922;2023-06-22T02:46:58;22.90;80.10
53254;DHT22;39148;53.332;6.922;2023-06-22T02:49:24;22.90;79.70
53254;DHT22;39148;53.332;6.922;2023-06-22T02:51:50;22.90;79.60
53254;DHT22;39148;53.332;6.922;2023-06-22T02:54:16;23.00;79.70
53254;DHT22;39148;53.332;6.922;2023-06-22T02:56:42;22.90;79.50
53254;DHT22;39148;53.332;6.922;2023-06-22T02:59:10;22.90;79.20
53254;DHT22;39148;53.332;6.922;2023-06-22T03:01:36;22.90;79.20
53254;DHT22;39148;53.332;6.922;2023-06-22T03:04:09;23.00;79.30
53254;DHT22;39148;53.332;6.922;2023-06-22T03:06:35;22.80;80.00
53254;DHT22;39148;53.332;6.922;2023-06-22T03:09:03;22.90;79.90
53254;DHT22;39148;53.332;6.922;2023-06-22T03:11:31;22.80;79.30
53254;DHT22;39148;53.332;6.922;2023-06-22T03:13:56;22.80;79.30
53254;DHT22;39148;53.332;6.922;2023-06-22T03:16:22;22.80;79.80
53254;DHT22;39148;53.332;6.922;2023-06-22T03:18:48;22.80;79.80
53254;DHT22;39148;53.332;6.922;2023-06-22T03:21:14;22.80;80.00
53254;DHT22;39148;53.332;6.922;2023-06-22T03:23:41;22.70;79.60
53254;DHT22;39148;53.332;6.922;2023-06-22T03:26:08;22.70;80.00
53254;DHT22;39148;53.332;6.922;2023-06-22T03:28:34;22.70;79.40
53254;DHT22;39148;53.332;6.922;2023-06-22T03:30:59;22.80;80.00
53254;DHT22;39148;53.332;6.922;2023-06-22T03:33:25;22.80;80.00
53254;DHT22;39148;53.332;6.922;2023-06-22T03:35:51;22.70;79.70
53254;DHT22;39148;53.332;6.922;2023-06-22T03:38:17;22.60;79.90
53254;DHT22;39148;53.332;6.922;2023-06-22T03:40:43;22.60;80.40
53254;DHT22;39148;53.332;6.922;2023-06-22T03:43:08;22.60;80.00
53254;DHT22;39148;53.332;6.922;2023-06-22T03:45:34;22.40;79.90
53254;DHT22;39148;53.332;6.922;2023-06-22T03:48:00;22.70;80.10
53254;DHT22;39148;53.332;6.922;2023-06-22T03:50:27;22.60;79.60
53254;DHT22;39148;53.332;6.922;2023-06-22T03:52:52;22.60;80.10
53254;DHT22;39148;53.332;6.922;2023-06-22T03:55:20;22.60;80.00
53254;DHT22;39148;53.332;6.922;2023-06-22T03:57:46;22.60;80.10
53254;DHT22;39148;53.332;6.922;2023-06-22T04:00:12;22.40;79.90
53254;DHT22;39148;53.332;6.922;2023-06-22T04:02:38;22.50;79.20
53254;DHT22;39148;53.332;6.922;2023-06-22T04:05:04;22.50;80.10
53254;DHT22;39148;53.332;6.922;2023-06-22T04:07:30;22.50;79.40
53254;DHT22;39148;53.332;6.922;2023-06-22T04:09:56;22.40;80.10
53254;DHT22;39148;53.332;6.922;2023-06-22T04:12:21;22.40;80.10
53254;DHT22;39148;53.332;6.922;2023-06-22T04:14:47;22.40;80.00
53254;DHT22;39148;53.332;6.922;2023-06-22T04:17:13;22.50;80.10
53254;DHT22;39148;53.332;6.922;2023-06-22T04:19:40;22.40;80.50
53254;DHT22;39148;53.332;6.922;2023-06-22T04:22:06;22.20;80.20
53254;DHT22;39148;53.332;6.922;2023-06-22T04:24:35;22.30;79.80
53254;DHT22;39148;53.332;6.922;2023-06-22T04:27:01;22.40;80.20
53254;DHT22;39148;53.332;6.922;2023-06-22T04:29:29;22.30;80.00
53254;DHT22;39148;53.332;6.922;2023-06-22T04:31:56;22.30;79.70
53254;DHT22;39148;53.332;6.922;2023-06-22T04:34:24;22.30;80.00
53254;DHT22;39148;53.332;6.922;2023-06-22T04:36:53;22.20;79.70
53254;DHT22;39148;53.332;6.922;2023-06-22T04:39:19;22.20;80.10
53254;DHT22;39148;53.332;6.922;2023-06-22T04:41:45;22.30;80.20
53254;DHT22;39148;53.332;6.922;2023-06-22T04:44:15;22.50;80.30
53254;DHT22;39148;53.332;6.922;2023-06-22T04:46:53;22.30;79.90
53254;DHT22;39148;53.332;6.922;2023-06-22T04:49:20;22.30;79.90
53254;DHT22;39148;53.332;6.922;2023-06-22T04:51:47;22.30;79.80
53254;DHT22;39148;53.332;6.922;2023-06-22T04:54:13;22.20;80.30
53254;DHT22;39148;53.332;6.922;2023-06-22T04:56:39;22.10;80.40
53254;DHT22;39148;53.332;6.922;2023-06-22T04:59:06;22.30;80.30
53254;DHT22;39148;53.332;6.922;2023-06-22T05:01:32;22.00;80.30
53254;DHT22;39148;53.332;6.922;2023-06-22T05:03:58;22.20;80.30
53254;DHT22;39148;53.332;6.922;2023-06-22T05:06:26;22.20;80.10
53254;DHT22;39148;53.332;6.922;2023-06-22T05:08:54;22.10;80.40
53254;DHT22;39148;53.332;6.922;2023-06-22T05:11:24;22.10;79.80
53254;DHT22;39148;53.332;6.922;2023-06-22T05:13:50;22.30;80.00
53254;DHT22;39148;53.332;6.922;2023-06-22T05:16:16;22.20;80.40
53254;DHT22;39148;53.332;6.922;2023-06-22T05:18:42;22.30;80.30
53254;DHT22;39148;53.332;6.922;2023-06-22T05:21:09;22.10;80.10
53254;DHT22;39148;53.332;6.922;2023-06-22T05:23:34;22.10;80.30
53254;DHT22;39148;53.332;6.922;2023-06-22T05:26:00;22.20;80.30
53254;DHT22;39148;53.332;6.922;2023-06-22T05:28:26;22.20;80.30
53254;DHT22;39148;53.332;6.922;2023-06-22T05:30:52;22.10;80.30
53254;DHT22;39148;53.332;6.922;2023-06-22T05:33:17;22.20;80.30
53254;DHT22;39148;53.332;6.922;2023-06-22T05:35:43;22.10;80.10
53254;DHT22;39148;53.332;6.922;2023-06-22T05:38:09;22.20;80.30
53254;DHT22;39148;53.332;6.922;2023-06-22T05:40:34;22.10;80.30
53254;DHT22;39148;53.332;6.922;2023-06-22T05:43:00;22.10;80.50
53254;DHT22;39148;53.332;6.922;2023-06-22T05:45:27;22.10;80.10
53254;DHT22;39148;53.332;6.922;2023-06-22T05:47:52;22.00;80.20
53254;DHT22;39148;53.332;6.922;2023-06-22T05:50:18;22.20;80.20
53254;DHT22;39148;53.332;6.922;2023-06-22T05:52:44;22.20;80.10
53254;DHT22;39148;53.332;6.922;2023-06-22T05:55:10;22.10;80.20
53254;DHT22;39148;53.332;6.922;2023-06-22T05:57:35;22.30;80.40
53254;DHT22;39148;53.332;6.922;2023-06-22T06:00:01;22.20;80.30
53254;DHT22;39148;53.332;6.922;2023-06-22T06:02:31;22.20;79.90
53254;DHT22;39148;53.332;6.922;2023-06-22T06:04:56;22.20;80.60
53254;DHT22;39148;53.332;6.922;2023-06-22T06:07:22;22.10;80.20
53254;DHT22;39148;53.332;6.922;2023-06-22T06:09:48;22.20;80.40
53254;DHT22;39148;53.332;6.922;2023-06-22T06:12:13;22.20;80.30
53254;DHT22;39148;53.332;6.922;2023-06-22T06:14:39;22.20;80.50
53254;DHT22;39148;53.332;6.922;2023-06-22T06:17:05;22.20;80.40
53254;DHT22;39148;53.332;6.922;2023-06-22T06:19:30;22.20;80.30
53254;DHT22;39148;53.332;6.922;2023-06-22T06:21:56;22.10;80.40
53254;DHT22;39148;53.332;6.922;2023-06-22T06:24:22;22.10;80.20
53254;DHT22;39148;53.332;6.922;2023-06-22T06:26:48;22.20;80.50
53254;DHT22;39148;53.332;6.922;2023-06-22T06:29:13;22.30;80.20
53254;DHT22;39148;53.332;6.922;2023-06-22T06:31:41;22.20;80.10
53254;DHT22;39148;53.332;6.922;2023-06-22T06:34:07;22.20;80.60
53254;DHT22;39148;53.332;6.922;2023-06-22T06:36:33;22.30;80.20
53254;DHT22;39148;53.332;6.922;2023-06-22T06:38:59;22.30;80.40
53254;DHT22;39148;53.332;6.922;2023-06-22T06:41:24;22.20;80.30
53254;DHT22;39148;53.332;6.922;2023-06-22T06:43:50;22.20;80.20
53254;DHT22;39148;53.332;6.922;2023-06-22T06:46:16;22.30;80.40
53254;DHT22;39148;53.332;6.922;2023-06-22T06:48:41;22.30;80.20
53254;DHT22;39148;53.332;6.922;2023-06-22T06:51:08;22.40;80.70
53254;DHT22;39148;53.332;6.922;2023-06-22T06:53:38;22.30;80.20
53254;DHT22;39148;53.332;6.922;2023-06-22T06:56:03;22.40;80.40
53254;DHT22;39148;53.332;6.922;2023-06-22T06:58:31;22.60;80.10
53254;DHT22;39148;53.332;6.922;2023-06-22T07:00:56;22.40;80.20
53254;DHT22;39148;53.332;6.922;2023-06-22T07:03:22;22.40;80.20
53254;DHT22;39148;53.332;6.922;2023-06-22T07:05:48;22.40;80.30
53254;DHT22;39148;53.332;6.922;2023-06-22T07:08:13;22.40;80.70
53254;DHT22;39148;53.332;6.922;2023-06-22T07:10:39;22.70;80.40
53254;DHT22;39148;53.332;6.922;2023-06-22T07:13:05;22.40;80.40
53254;DHT22;39148;53.332;6.922;2023-06-22T07:15:30;22.50;80.30
53254;DHT22;39148;53.332;6.922;2023-06-22T07:17:56;22.80;80.50
53254;DHT22;39148;53.332;6.922;2023-06-22T07:20:22;22.60;80.30
53254;DHT22;39148;53.332;6.922;2023-06-22T07:22:48;22.50;80.30
53254;DHT22;39148;53.332;6.922;2023-06-22T07:25:13;22.50;80.30
53254;DHT22;39148;53.332;6.922;2023-06-22T07:28:01;22.70;80.00
53254;DHT22;39148;53.332;6.922;2023-06-22T07:30:28;25.00;80.90
53254;DHT22;39148;53.332;6.922;2023-06-22T07:32:54;22.70;79.80
53254;DHT22;39148;53.332;6.922;2023-06-22T07:35:20;22.60;80.20
53254;DHT22;39148;53.332;6.922;2023-06-22T07:37:45;22.90;80.30
53254;DHT22;39148;53.332;6.922;2023-06-22T07:40:12;22.90;80.30
53254;DHT22;39148;53.332;6.922;2023-06-22T07:42:38;22.70;79.50
53254;DHT22;39148;53.332;6.922;2023-06-22T07:45:04;22.80;80.30
53254;DHT22;39148;53.332;6.922;2023-06-22T07:47:30;22.90;79.60
53254;DHT22;39148;53.332;6.922;2023-06-22T07:49:58;23.00;80.30
53254;DHT22;39148;53.332;6.922;2023-06-22T07:52:26;23.20;80.00
53254;DHT22;39148;53.332;6.922;2023-06-22T07:54:52;22.90;79.70
53254;DHT22;39148;53.332;6.922;2023-06-22T07:57:19;22.80;80.00
53254;DHT22;39148;53.332;6.922;2023-06-22T07:59:45;22.90;79.60
53254;DHT22;39148;53.332;6.922;2023-06-22T08:02:13;22.90;80.00
53254;DHT22;39148;53.332;6.922;2023-06-22T08:04:39;23.30;79.90
53254;DHT22;39148;53.332;6.922;2023-06-22T08:07:06;23.10;79.90
53254;DHT22;39148;53.332;6.922;2023-06-22T08:09:32;23.10;80.10
53254;DHT22;39148;53.332;6.922;2023-06-22T08:11:59;22.80;79.30
53254;DHT22;39148;53.332;6.922;2023-06-22T08:14:25;23.20;79.80
53254;DHT22;39148;53.332;6.922;2023-06-22T08:16:51;23.10;79.80
53254;DHT22;39148;53.332;6.922;2023-06-22T08:19:17;23.10;79.90
53254;DHT22;39148;53.332;6.922;2023-06-22T08:21:43;23.10;79.70
53254;DHT22;39148;53.332;6.922;2023-06-22T08:24:09;23.40;79.90
53254;DHT22;39148;53.332;6.922;2023-06-22T08:26:35;23.10;79.60
53254;DHT22;39148;53.332;6.922;2023-06-22T08:29:03;23.30;79.40
53254;DHT22;39148;53.332;6.922;2023-06-22T08:31:30;25.20;80.20
53254;DHT22;39148;53.332;6.922;2023-06-22T08:33:56;23.30;79.10
53254;DHT22;39148;53.332;6.922;2023-06-22T08:36:22;23.30;79.40
53254;DHT22;39148;53.332;6.922;2023-06-22T08:38:47;23.50;79.40
53254;DHT22;39148;53.332;6.922;2023-06-22T08:41:19;23.50;78.10
53254;DHT22;39148;53.332;6.922;2023-06-22T08:43:45;23.20;79.30
53254;DHT22;39148;53.332;6.922;2023-06-22T08:46:11;23.60;78.90
53254;DHT22;39148;53.332;6.922;2023-06-22T08:48:37;23.40;79.30
53254;DHT22;39148;53.332;6.922;2023-06-22T08:51:02;23.50;79.30
53254;DHT22;39148;53.332;6.922;2023-06-22T08:53:28;23.60;79.30
53254;DHT22;39148;53.332;6.922;2023-06-22T08:55:54;23.50;79.00
53254;DHT22;39148;53.332;6.922;2023-06-22T08:58:20;23.80;79.60
53254;DHT22;39148;53.332;6.922;2023-06-22T09:00:47;23.40;79.20
53254;DHT22;39148;53.332;6.922;2023-06-22T09:03:13;23.70;79.00
53254;DHT22;39148;53.332;6.922;2023-06-22T09:05:39;24.20;79.70
53254;DHT22;39148;53.332;6.922;2023-06-22T09:08:04;22.00;78.50
53254;DHT22;39148;53.332;6.922;2023-06-22T09:10:30;23.90;79.30
53254;DHT22;39148;53.332;6.922;2023-06-22T09:12:57;23.70;79.30
53254;DHT22;39148;53.332;6.922;2023-06-22T09:15:23;23.80;78.80
53254;DHT22;39148;53.332;6.922;2023-06-22T09:17:48;23.90;79.20
53254;DHT22;39148;53.332;6.922;2023-06-22T09:20:14;24.00;79.20
53254;DHT22;39148;53.332;6.922;2023-06-22T09:22:41;24.00;79.00
53254;DHT22;39148;53.332;6.922;2023-06-22T09:25:07;24.10;79.10
53254;DHT22;39148;53.332;6.922;2023-06-22T09:27:33;24.00;78.40
53254;DHT22;39148;53.332;6.922;2023-06-22T09:29:58;24.00;78.90
53254;DHT22;39148;53.332;6.922;2023-06-22T09:32:25;24.20;78.90
53254;DHT22;39148;53.332;6.922;2023-06-22T09:34:51;24.00;78.60
53254;DHT22;39148;53.332;6.922;2023-06-22T09:37:17;24.10;78.70
53254;DHT22;39148;53.332;6.922;2023-06-22T09:39:42;24.10;78.60
53254;DHT22;39148;53.332;6.922;2023-06-22T09:42:08;24.10;78.50
53254;DHT22;39148;53.332;6.922;2023-06-22T09:44:34;24.30;78.50
53254;DHT22;39148;53.332;6.922;2023-06-22T09:47:03;24.30;78.60
53254;DHT22;39148;53.332;6.922;2023-06-22T09:49:28;24.30;78.10
53254;DHT22;39148;53.332;6.922;2023-06-22T09:51:54;24.30;78.30
53254;DHT22;39148;53.332;6.922;2023-06-22T09:54:20;24.30;78.30
53254;DHT22;39148;53.332;6.922;2023-06-22T09:56:46;24.30;78.10
53254;DHT22;39148;53.332;6.922;2023-06-22T09:59:11;24.50;78.00
53254;DHT22;39148;53.332;6.922;2023-06-22T10:01:37;24.50;77.70
53254;DHT22;39148;53.332;6.922;2023-06-22T10:04:02;24.50;77.90
53254;DHT22;39148;53.332;6.922;2023-06-22T10:06:28;24.50;77.70
53254;DHT22;39148;53.332;6.922;2023-06-22T10:08:54;24.70;77.80
53254;DHT22;39148;53.332;6.922;2023-06-22T10:11:20;24.50;77.60
53254;DHT22;39148;53.332;6.922;2023-06-22T10:13:45;24.60;77.60
53254;DHT22;39148;53.332;6.922;2023-06-22T10:16:11;24.60;77.70
53254;DHT22;39148;53.332;6.922;2023-06-22T10:18:37;24.70;77.50
53254;DHT22;39148;53.332;6.922;2023-06-22T10:21:02;24.80;77.80
53254;DHT22;39148;53.332;6.922;2023-06-22T10:23:28;25.00;77.90
53254;DHT22;39148;53.332;6.922;2023-06-22T10:25:54;24.70;77.60
53254;DHT22;39148;53.332;6.922;2023-06-22T10:28:19;25.00;77.60
53254;DHT22;39148;53.332;6.922;2023-06-22T10:30:45;24.70;77.50
53254;DHT22;39148;53.332;6.922;2023-06-22T10:33:11;24.80;77.50
53254;DHT22;39148;53.332;6.922;2023-06-22T10:35:38;24.80;77.10
53254;DHT22;39148;53.332;6.922;2023-06-22T10:38:04;24.90;77.10
53254;DHT22;39148;53.332;6.922;2023-06-22T10:40:30;25.00;77.50
53254;DHT22;39148;53.332;6.922;2023-06-22T10:42:56;25.00;77.70
53254;DHT22;39148;53.332;6.922;2023-06-22T10:45:21;24.90;77.60
53254;DHT22;39148;53.332;6.922;2023-06-22T10:47:47;25.00;77.70
53254;DHT22;39148;53.332;6.922;2023-06-22T10:50:13;25.00;77.60
53254;DHT22;39148;53.332;6.922;2023-06-22T10:52:39;25.10;77.80
53254;DHT22;39148;53.332;6.922;2023-06-22T10:55:07;25.20;77.50
53254;DHT22;39148;53.332;6.922;2023-06-22T10:57:33;25.30;77.10
53254;DHT22;39148;53.332;6.922;2023-06-22T10:59:59;25.20;77.50
53254;DHT22;39148;53.332;6.922;2023-06-22T11:02:24;25.10;77.70
53254;DHT22;39148;53.332;6.922;2023-06-22T11:04:50;25.10;77.60
53254;DHT22;39148;53.332;6.922;2023-06-22T11:07:16;25.20;76.90
53254;DHT22;39148;53.332;6.922;2023-06-22T11:09:45;25.20;77.30
53254;DHT22;39148;53.332;6.922;2023-06-22T11:12:11;25.30;77.00
53254;DHT22;39148;53.332;6.922;2023-06-22T11:14:38;25.30;77.00
53254;DHT22;39148;53.332;6.922;2023-06-22T11:17:04;25.40;77.00
53254;DHT22;39148;53.332;6.922;2023-06-22T11:19:29;25.40;76.70
53254;DHT22;39148;53.332;6.922;2023-06-22T11:21:55;25.30;76.80
53254;DHT22;39148;53.332;6.922;2023-06-22T11:24:22;25.50;76.60
53254;DHT22;39148;53.332;6.922;2023-06-22T11:26:48;25.50;76.80
53254;DHT22;39148;53.332;6.922;2023-06-22T11:29:14;25.60;76.90
53254;DHT22;39148;53.332;6.922;2023-06-22T11:31:40;25.50;76.80
53254;DHT22;39148;53.332;6.922;2023-06-22T11:34:05;25.50;76.80
53254;DHT22;39148;53.332;6.922;2023-06-22T11:36:31;25.60;77.00
53254;DHT22;39148;53.332;6.922;2023-06-22T11:38:58;25.60;76.90
53254;DHT22;39148;53.332;6.922;2023-06-22T11:41:24;25.70;76.90
53254;DHT22;39148;53.332;6.922;2023-06-22T11:43:50;25.70;77.00
53254;DHT22;39148;53.332;6.922;2023-06-22T11:46:15;25.70;76.80
53254;DHT22;39148;53.332;6.922;2023-06-22T11:48:41;25.70;76.90
53254;DHT22;39148;53.332;6.922;2023-06-22T11:51:07;25.80;76.80
53254;DHT22;39148;53.332;6.922;2023-06-22T11:53:34;25.80;77.00
53254;DHT22;39148;53.332;6.922;2023-06-22T11:56:00;25.70;76.80
53254;DHT22;39148;53.332;6.922;2023-06-22T11:58:34;25.80;76.90
53254;DHT22;39148;53.332;6.922;2023-06-22T12:00:59;25.80;78.30
53254;DHT22;39148;53.332;6.922;2023-06-22T12:03:25;25.80;77.40
53254;DHT22;39148;53.332;6.922;2023-06-22T12:05:51;25.90;77.60
53254;DHT22;39148;53.332;6.922;2023-06-22T12:08:19;25.90;76.10
53254;DHT22;39148;53.332;6.922;2023-06-22T12:10:45;26.00;77.40
53254;DHT22;39148;53.332;6.922;2023-06-22T12:13:11;26.00;77.60
53254;DHT22;39148;53.332;6.922;2023-06-22T12:15:36;26.20;77.40
53254;DHT22;39148;53.332;6.922;2023-06-22T12:18:02;26.20;77.60
53254;DHT22;39148;53.332;6.922;2023-06-22T12:20:28;26.20;77.40
53254;DHT22;39148;53.332;6.922;2023-06-22T12:22:54;26.10;77.60
53254;DHT22;39148;53.332;6.922;2023-06-22T12:25:22;26.30;77.40
53254;DHT22;39148;53.332;6.922;2023-06-22T12:27:48;26.10;77.30
53254;DHT22;39148;53.332;6.922;2023-06-22T12:30:16;26.20;77.20
53254;DHT22;39148;53.332;6.922;2023-06-22T12:32:42;26.20;77.00
53254;DHT22;39148;53.332;6.922;2023-06-22T12:35:08;26.50;77.50
53254;DHT22;39148;53.332;6.922;2023-06-22T12:37:42;26.20;76.90
53254;DHT22;39148;53.332;6.922;2023-06-22T12:40:09;26.30;76.70
53254;DHT22;39148;53.332;6.922;2023-06-22T12:42:35;26.30;76.50
53254;DHT22;39148;53.332;6.922;2023-06-22T12:45:00;26.30;77.10
53254;DHT22;39148;53.332;6.922;2023-06-22T12:47:26;26.30;77.00
53254;DHT22;39148;53.332;6.922;2023-06-22T12:49:52;26.40;76.80
53254;DHT22;39148;53.332;6.922;2023-06-22T12:52:17;26.40;77.10
53254;DHT22;39148;53.332;6.922;2023-06-22T12:54:43;26.40;76.60
53254;DHT22;39148;53.332;6.922;2023-06-22T12:57:09;26.50;76.70
53254;DHT22;39148;53.332;6.922;2023-06-22T12:59:34;26.60;76.90
53254;DHT22;39148;53.332;6.922;2023-06-22T13:02:00;26.60;76.80
53254;DHT22;39148;53.332;6.922;2023-06-22T13:04:26;26.50;76.60
53254;DHT22;39148;53.332;6.922;2023-06-22T13:06:52;26.60;76.70
53254;DHT22;39148;53.332;6.922;2023-06-22T13:09:19;26.60;76.60
53254;DHT22;39148;53.332;6.922;2023-06-22T13:11:45;26.60;76.40
53254;DHT22;39148;53.332;6.922;2023-06-22T13:14:10;26.60;76.50
53254;DHT22;39148;53.332;6.922;2023-06-22T13:16:36;26.60;76.40
53254;DHT22;39148;53.332;6.922;2023-06-22T13:19:02;26.60;76.40
53254;DHT22;39148;53.332;6.922;2023-06-22T13:21:28;26.60;76.30
53254;DHT22;39148;53.332;6.922;2023-06-22T13:23:53;26.70;76.00
53254;DHT22;39148;53.332;6.922;2023-06-22T13:26:20;26.70;75.50
53254;DHT22;39148;53.332;6.922;2023-06-22T13:28:46;26.70;75.60
53254;DHT22;39148;53.332;6.922;2023-06-22T13:31:11;26.70;75.70
53254;DHT22;39148;53.332;6.922;2023-06-22T13:33:38;26.80;75.50
53254;DHT22;39148;53.332;6.922;2023-06-22T13:36:04;26.90;75.70
53254;DHT22;39148;53.332;6.922;2023-06-22T13:38:31;26.70;75.10
53254;DHT22;39148;53.332;6.922;2023-06-22T13:40:57;26.80;75.40
53254;DHT22;39148;53.332;6.922;2023-06-22T13:43:26;26.80;75.20
53254;DHT22;39148;53.332;6.922;2023-06-22T13:45:52;26.80;75.30
53254;DHT22;39148;53.332;6.922;2023-06-22T13:48:18;26.90;75.20
53254;DHT22;39148;53.332;6.922;2023-06-22T13:50:43;26.70;75.00
53254;DHT22;39148;53.332;6.922;2023-06-22T13:53:09;26.90;75.00
53254;DHT22;39148;53.332;6.922;2023-06-22T13:55:35;26.90;75.00
53254;DHT22;39148;53.332;6.922;2023-06-22T13:58:00;26.90;75.00
53254;DHT22;39148;53.332;6.922;2023-06-22T14:00:26;27.00;75.00
53254;DHT22;39148;53.332;6.922;2023-06-22T14:02:53;26.90;75.00
53254;DHT22;39148;53.332;6.922;2023-06-22T14:05:20;26.90;74.90
53254;DHT22;39148;53.332;6.922;2023-06-22T14:07:45;26.90;74.70
53254;DHT22;39148;53.332;6.922;2023-06-22T14:10:11;27.00;74.90
53254;DHT22;39148;53.332;6.922;2023-06-22T14:12:36;27.00;74.80
53254;DHT22;39148;53.332;6.922;2023-06-22T14:15:02;26.90;74.70
53254;DHT22;39148;53.332;6.922;2023-06-22T14:17:28;27.00;74.30
53254;DHT22;39148;53.332;6.922;2023-06-22T14:19:54;26.90;74.50
53254;DHT22;39148;53.332;6.922;2023-06-22T14:22:21;26.80;74.40
53254;DHT22;39148;53.332;6.922;2023-06-22T14:24:50;26.90;74.40
53254;DHT22;39148;53.332;6.922;2023-06-22T14:27:16;26.90;74.60
53254;DHT22;39148;53.332;6.922;2023-06-22T14:29:42;26.90;74.30
53254;DHT22;39148;53.332;6.922;2023-06-22T14:32:08;27.00;74.30
53254;DHT22;39148;53.332;6.922;2023-06-22T14:34:34;27.00;73.90
53254;DHT22;39148;53.332;6.922;2023-06-22T14:37:08;27.10;74.30
53254;DHT22;39148;53.332;6.922;2023-06-22T14:39:40;26.90;74.20
53254;DHT22;39148;53.332;6.922;2023-06-22T14:42:06;27.00;74.10
53254;DHT22;39148;53.332;6.922;2023-06-22T14:44:32;26.90;74.00
53254;DHT22;39148;53.332;6.922;2023-06-22T14:46:58;27.00;74.00
53254;DHT22;39148;53.332;6.922;2023-06-22T14:49:24;27.00;73.90
53254;DHT22;39148;53.332;6.922;2023-06-22T14:51:50;27.00;73.90
53254;DHT22;39148;53.332;6.922;2023-06-22T14:54:16;27.00;73.90
53254;DHT22;39148;53.332;6.922;2023-06-22T14:56:41;26.90;73.90
53254;DHT22;39148;53.332;6.922;2023-06-22T14:59:09;26.90;73.80
53254;DHT22;39148;53.332;6.922;2023-06-22T15:01:34;26.90;73.80
53254;DHT22;39148;53.332;6.922;2023-06-22T15:04:00;27.00;73.80
53254;DHT22;39148;53.332;6.922;2023-06-22T15:06:26;26.90;73.70
53254;DHT22;39148;53.332;6.922;2023-06-22T15:08:53;26.70;73.70
53254;DHT22;39148;53.332;6.922;2023-06-22T15:11:18;26.90;73.70
53254;DHT22;39148;53.332;6.922;2023-06-22T15:13:44;26.80;73.50
53254;DHT22;39148;53.332;6.922;2023-06-22T15:16:10;26.80;73.50
53254;DHT22;39148;53.332;6.922;2023-06-22T15:18:36;26.90;73.50
53254;DHT22;39148;53.332;6.922;2023-06-22T15:21:03;26.90;73.60
53254;DHT22;39148;53.332;6.922;2023-06-22T15:23:29;26.80;73.50
53254;DHT22;39148;53.332;6.922;2023-06-22T15:25:56;26.80;73.50
53254;DHT22;39148;53.332;6.922;2023-06-22T15:28:22;26.80;73.60
53254;DHT22;39148;53.332;6.922;2023-06-22T15:30:48;26.90;73.60
53254;DHT22;39148;53.332;6.922;2023-06-22T15:33:14;26.80;73.50
53254;DHT22;39148;53.332;6.922;2023-06-22T15:35:40;26.90;73.50